SAS57X ESGG-EKCH
Flight info
| Callsign | SAS57X |
|---|---|
| Flight time | 0h 28m |
| Altitude | 15000 |
| Route | TOPLA L996 ERNOV |
| Aircraft | A20N/M-SDE2E3FGHIRWXY/LB1 |
Departure
| Time | 2026-05-04 19:58 |
|---|---|
| Airport | Göteborg Landvetter Airport (ESGG) |
Arrival
| Time | 2026-05-04 20:26 |
|---|---|
| Airport | Copenhagen Kastrup Airport (EKCH) |
| Time | Latitude | Longitude | Altitude | Speed | Heading |
|---|---|---|---|---|---|
| 2026-05-04 19:40 | 57.67009 | 12.29525 | 511 ft | 0 kts | 116° |
| 2026-05-04 19:40 | 57.67013 | 12.29508 | 511 ft | 0 kts | 116° |
| 2026-05-04 19:49 | 57.67016 | 12.29499 | 510 ft | 2 kts | 116° |
| 2026-05-04 19:50 | 57.67023 | 12.29470 | 510 ft | 2 kts | 116° |
| 2026-05-04 19:50 | 57.67031 | 12.29441 | 510 ft | 2 kts | 116° |
| 2026-05-04 19:50 | 57.67038 | 12.29413 | 510 ft | 2 kts | 116° |
| 2026-05-04 19:50 | 57.67037 | 12.29416 | 510 ft | 0 kts | 116° |
| 2026-05-04 19:51 | 57.67036 | 12.29418 | 510 ft | 2 kts | 154° |
| 2026-05-04 19:51 | 57.67047 | 12.29413 | 511 ft | 2 kts | 206° |
| 2026-05-04 19:53 | 57.67026 | 12.29393 | 510 ft | 6 kts | 206° |
| 2026-05-04 19:53 | 57.66983 | 12.29346 | 510 ft | 5 kts | 237° |
| 2026-05-04 19:53 | 57.66990 | 12.29272 | 510 ft | 8 kts | 295° |
| 2026-05-04 19:54 | 57.67024 | 12.29172 | 510 ft | 10 kts | 332° |
| 2026-05-04 19:54 | 57.67069 | 12.29217 | 510 ft | 9 kts | 32° |
| 2026-05-04 19:54 | 57.67134 | 12.29268 | 511 ft | 12 kts | 24° |
| 2026-05-04 19:54 | 57.67217 | 12.29344 | 512 ft | 15 kts | 26° |
| 2026-05-04 19:55 | 57.67301 | 12.29422 | 513 ft | 14 kts | 26° |
| 2026-05-04 19:55 | 57.67364 | 12.29476 | 513 ft | 5 kts | 20° |
| 2026-05-04 19:55 | 57.67407 | 12.29459 | 514 ft | 8 kts | 323° |
| 2026-05-04 19:55 | 57.67435 | 12.29379 | 514 ft | 7 kts | 295° |
| 2026-05-04 19:56 | 57.67452 | 12.29309 | 514 ft | 0 kts | 291° |
| 2026-05-04 19:56 | 57.67454 | 12.29298 | 514 ft | 3 kts | 290° |
| 2026-05-04 19:56 | 57.67462 | 12.29215 | 513 ft | 10 kts | 269° |
| 2026-05-04 19:56 | 57.67444 | 12.29076 | 512 ft | 9 kts | 246° |
| 2026-05-04 19:57 | 57.67399 | 12.28991 | 512 ft | 8 kts | 202° |
| 2026-05-04 19:57 | 57.67330 | 12.28927 | 511 ft | 19 kts | 206° |
| 2026-05-04 19:57 | 57.66958 | 12.28589 | 509 ft | 101 kts | 206° |
| 2026-05-04 19:57 | 57.66114 | 12.27816 | 501 ft | 167 kts | 206° |
| 2026-05-04 19:58 | 57.65048 | 12.26810 | 1159 ft | 174 kts | 208° |
| 2026-05-04 19:58 | 57.63953 | 12.25771 | 2033 ft | 179 kts | 206° |
| 2026-05-04 19:58 | 57.62813 | 12.24797 | 2937 ft | 182 kts | 204° |
| 2026-05-04 19:58 | 57.61629 | 12.23845 | 3733 ft | 192 kts | 205° |
| 2026-05-04 19:59 | 57.60371 | 12.22672 | 4258 ft | 212 kts | 208° |
| 2026-05-04 19:59 | 57.58978 | 12.21401 | 4722 ft | 236 kts | 197° |
| 2026-05-04 19:59 | 57.57276 | 12.21218 | 5277 ft | 259 kts | 171° |
| 2026-05-04 19:59 | 57.55477 | 12.22060 | 6028 ft | 271 kts | 165° |
| 2026-05-04 20:00 | 57.53626 | 12.22810 | 7004 ft | 274 kts | 169° |
| 2026-05-04 20:00 | 57.51760 | 12.23488 | 7973 ft | 278 kts | 169° |
| 2026-05-04 20:00 | 57.49836 | 12.24120 | 8911 ft | 283 kts | 171° |
| 2026-05-04 20:00 | 57.47885 | 12.24699 | 9847 ft | 286 kts | 172° |
| 2026-05-04 20:01 | 57.45891 | 12.25255 | 10628 ft | 297 kts | 172° |
| 2026-05-04 20:01 | 57.43758 | 12.25832 | 10989 ft | 321 kts | 172° |
| 2026-05-04 20:01 | 57.41478 | 12.26443 | 11409 ft | 340 kts | 172° |
| 2026-05-04 20:01 | 57.39120 | 12.27075 | 12214 ft | 344 kts | 172° |
| 2026-05-04 20:02 | 57.36735 | 12.27715 | 13028 ft | 348 kts | 172° |
| 2026-05-04 20:02 | 57.34320 | 12.28363 | 13823 ft | 353 kts | 172° |
| 2026-05-04 20:02 | 57.31879 | 12.29017 | 14610 ft | 357 kts | 172° |
| 2026-05-04 20:02 | 57.29401 | 12.29681 | 15021 ft | 361 kts | 172° |
| 2026-05-04 20:03 | 57.26916 | 12.30346 | 15106 ft | 361 kts | 172° |
| 2026-05-04 20:03 | 57.24428 | 12.31011 | 15109 ft | 361 kts | 172° |
| 2026-05-04 20:03 | 57.21944 | 12.31673 | 15108 ft | 361 kts | 172° |
| 2026-05-04 20:03 | 57.19453 | 12.32337 | 15110 ft | 361 kts | 172° |
| 2026-05-04 20:04 | 57.16970 | 12.32998 | 15109 ft | 361 kts | 172° |
| 2026-05-04 20:04 | 57.14484 | 12.33659 | 15110 ft | 361 kts | 172° |
| 2026-05-04 20:04 | 57.11997 | 12.34312 | 15110 ft | 361 kts | 172° |
| 2026-05-04 20:04 | 57.09541 | 12.34927 | 15112 ft | 361 kts | 173° |
| 2026-05-04 20:05 | 57.07050 | 12.35539 | 15106 ft | 361 kts | 173° |
| 2026-05-04 20:05 | 57.04564 | 12.36148 | 15110 ft | 361 kts | 173° |
| 2026-05-04 20:05 | 57.02077 | 12.36761 | 15112 ft | 361 kts | 173° |
| 2026-05-04 20:05 | 56.99591 | 12.37374 | 15109 ft | 361 kts | 173° |
| 2026-05-04 20:06 | 56.97153 | 12.37977 | 15109 ft | 361 kts | 173° |
| 2026-05-04 20:06 | 56.94664 | 12.38591 | 15110 ft | 361 kts | 173° |
| 2026-05-04 20:06 | 56.92175 | 12.39206 | 15109 ft | 361 kts | 173° |
| 2026-05-04 20:06 | 56.89685 | 12.39819 | 15109 ft | 361 kts | 173° |
| 2026-05-04 20:07 | 56.87201 | 12.40430 | 15112 ft | 361 kts | 173° |
| 2026-05-04 20:07 | 56.84714 | 12.41041 | 15110 ft | 361 kts | 173° |
| 2026-05-04 20:07 | 56.82228 | 12.41651 | 15109 ft | 361 kts | 173° |
| 2026-05-04 20:07 | 56.79739 | 12.42260 | 15109 ft | 361 kts | 173° |
| 2026-05-04 20:08 | 56.77278 | 12.42861 | 15109 ft | 361 kts | 173° |
| 2026-05-04 20:08 | 56.74794 | 12.43468 | 15105 ft | 361 kts | 173° |
| 2026-05-04 20:08 | 56.72303 | 12.44075 | 15108 ft | 361 kts | 173° |
| 2026-05-04 20:08 | 56.69811 | 12.44681 | 15106 ft | 361 kts | 173° |
| 2026-05-04 20:09 | 56.67328 | 12.45285 | 15112 ft | 361 kts | 173° |
| 2026-05-04 20:09 | 56.64842 | 12.45888 | 15110 ft | 361 kts | 173° |
| 2026-05-04 20:09 | 56.62353 | 12.46492 | 15112 ft | 361 kts | 173° |
| 2026-05-04 20:09 | 56.59867 | 12.47094 | 15109 ft | 361 kts | 173° |
| 2026-05-04 20:10 | 56.57378 | 12.47696 | 15108 ft | 361 kts | 173° |
| 2026-05-04 20:10 | 56.55728 | 12.48094 | 15112 ft | 361 kts | 173° |
| 2026-05-04 20:10 | 56.53241 | 12.48694 | 15110 ft | 361 kts | 173° |
| 2026-05-04 20:10 | 56.50753 | 12.49294 | 15110 ft | 361 kts | 173° |
| 2026-05-04 20:11 | 56.48265 | 12.49892 | 15108 ft | 361 kts | 173° |
| 2026-05-04 20:11 | 56.45780 | 12.50490 | 15107 ft | 361 kts | 173° |
| 2026-05-04 20:11 | 56.43291 | 12.51087 | 15106 ft | 361 kts | 173° |
| 2026-05-04 20:11 | 56.40803 | 12.51683 | 15112 ft | 361 kts | 173° |
| 2026-05-04 20:12 | 56.38313 | 12.52280 | 15109 ft | 361 kts | 173° |
| 2026-05-04 20:12 | 56.35830 | 12.52873 | 15110 ft | 361 kts | 173° |
| 2026-05-04 20:12 | 56.33339 | 12.53468 | 15112 ft | 361 kts | 173° |
| 2026-05-04 20:12 | 56.30851 | 12.54061 | 15110 ft | 361 kts | 173° |
| 2026-05-04 20:13 | 56.28364 | 12.54653 | 15110 ft | 361 kts | 173° |
| 2026-05-04 20:13 | 56.25877 | 12.55245 | 15106 ft | 361 kts | 173° |
| 2026-05-04 20:13 | 56.23387 | 12.55836 | 15110 ft | 361 kts | 173° |
| 2026-05-04 20:13 | 56.20896 | 12.56427 | 15112 ft | 361 kts | 173° |
| 2026-05-04 20:14 | 56.18404 | 12.56895 | 15110 ft | 360 kts | 178° |
| 2026-05-04 20:14 | 56.15899 | 12.56708 | 15109 ft | 360 kts | 187° |
| 2026-05-04 20:14 | 56.13447 | 12.55822 | 15034 ft | 360 kts | 195° |
| 2026-05-04 20:14 | 56.11028 | 12.54660 | 14705 ft | 360 kts | 195° |
| 2026-05-04 20:15 | 56.08637 | 12.53519 | 14332 ft | 355 kts | 195° |
| 2026-05-04 20:15 | 56.06258 | 12.52395 | 13957 ft | 353 kts | 195° |
| 2026-05-04 20:15 | 56.03904 | 12.51290 | 13566 ft | 343 kts | 195° |
| 2026-05-04 20:15 | 56.01674 | 12.50248 | 13197 ft | 329 kts | 195° |
| 2026-05-04 20:16 | 55.99503 | 12.49237 | 12820 ft | 316 kts | 195° |
| 2026-05-04 20:16 | 55.97416 | 12.48266 | 12443 ft | 305 kts | 195° |
| 2026-05-04 20:16 | 55.95400 | 12.47329 | 12066 ft | 294 kts | 195° |
| 2026-05-04 20:16 | 55.93449 | 12.46423 | 11688 ft | 285 kts | 195° |
| 2026-05-04 20:17 | 55.91562 | 12.45537 | 11311 ft | 276 kts | 195° |
| 2026-05-04 20:17 | 55.89734 | 12.44671 | 10924 ft | 269 kts | 195° |
| 2026-05-04 20:17 | 55.87924 | 12.43828 | 10557 ft | 269 kts | 191° |
| 2026-05-04 20:17 | 55.86076 | 12.43885 | 10182 ft | 267 kts | 166° |
| 2026-05-04 20:18 | 55.84272 | 12.44726 | 9820 ft | 268 kts | 165° |
| 2026-05-04 20:18 | 55.82467 | 12.45607 | 9445 ft | 269 kts | 165° |
| 2026-05-04 20:18 | 55.80660 | 12.46488 | 9068 ft | 269 kts | 165° |
| 2026-05-04 20:18 | 55.78857 | 12.47357 | 8694 ft | 268 kts | 165° |
| 2026-05-04 20:19 | 55.77059 | 12.48215 | 8316 ft | 267 kts | 165° |
| 2026-05-04 20:19 | 55.75267 | 12.49084 | 7942 ft | 267 kts | 161° |
| 2026-05-04 20:19 | 55.73707 | 12.50780 | 7567 ft | 265 kts | 133° |
| 2026-05-04 20:19 | 55.72787 | 12.53526 | 7197 ft | 264 kts | 105° |
| 2026-05-04 20:20 | 55.72581 | 12.56775 | 6817 ft | 262 kts | 82° |
| 2026-05-04 20:20 | 55.73080 | 12.59826 | 6437 ft | 262 kts | 70° |
| 2026-05-04 20:20 | 55.73700 | 12.62897 | 5937 ft | 266 kts | 70° |
| 2026-05-04 20:20 | 55.74326 | 12.65995 | 5455 ft | 266 kts | 70° |
| 2026-05-04 20:21 | 55.74946 | 12.69062 | 5078 ft | 262 kts | 70° |
| 2026-05-04 20:21 | 55.75558 | 12.72091 | 4702 ft | 259 kts | 70° |
| 2026-05-04 20:21 | 55.76375 | 12.78103 | 3938 ft | 246 kts | 99° |
| 2026-05-04 20:22 | 55.75920 | 12.80981 | 3554 ft | 240 kts | 118° |
| 2026-05-04 20:22 | 55.74832 | 12.83117 | 3175 ft | 233 kts | 149° |
| 2026-05-04 20:22 | 55.73309 | 12.83922 | 2680 ft | 230 kts | 182° |
| 2026-05-04 20:22 | 55.71851 | 12.83010 | 2246 ft | 223 kts | 223° |
| 2026-05-04 20:23 | 55.70947 | 12.80896 | 2046 ft | 208 kts | 237° |
| 2026-05-04 20:23 | 55.70130 | 12.78908 | 2010 ft | 189 kts | 230° |
| 2026-05-04 20:23 | 55.69252 | 12.77247 | 1786 ft | 182 kts | 224° |
| 2026-05-04 20:23 | 55.68347 | 12.75766 | 1555 ft | 174 kts | 222° |
| 2026-05-04 20:24 | 55.67455 | 12.74383 | 1315 ft | 167 kts | 222° |
| 2026-05-04 20:24 | 55.66802 | 12.73365 | 1147 ft | 162 kts | 222° |
| 2026-05-04 20:24 | 55.66083 | 12.72251 | 965 ft | 161 kts | 222° |
| 2026-05-04 20:24 | 55.65246 | 12.70951 | 750 ft | 155 kts | 221° |
| 2026-05-04 20:25 | 55.64472 | 12.69752 | 567 ft | 141 kts | 222° |
| 2026-05-04 20:25 | 55.63758 | 12.68644 | 381 ft | 137 kts | 222° |
| 2026-05-04 20:25 | 55.63040 | 12.67535 | 189 ft | 136 kts | 221° |
| 2026-05-04 20:25 | 55.62326 | 12.66449 | 40 ft | 134 kts | 221° |
| 2026-05-04 20:26 | 55.61693 | 12.65453 | 18 ft | 102 kts | 222° |
| 2026-05-04 20:26 | 55.61349 | 12.64896 | 21 ft | 37 kts | 224° |
| 2026-05-04 20:26 | 55.61260 | 12.64637 | 20 ft | 18 kts | 245° |
| 2026-05-04 20:26 | 55.61217 | 12.64418 | 18 ft | 19 kts | 252° |
| 2026-05-04 20:27 | 55.61189 | 12.64271 | 18 ft | 11 kts | 254° |
| 2026-05-04 20:27 | 55.61199 | 12.64144 | 17 ft | 10 kts | 303° |
| 2026-05-04 20:27 | 55.61264 | 12.64103 | 18 ft | 11 kts | 6° |
| 2026-05-04 20:27 | 55.61330 | 12.64168 | 19 ft | 12 kts | 33° |
| 2026-05-04 20:28 | 55.61409 | 12.64260 | 20 ft | 15 kts | 33° |